Time;durP1;ratioP1;P1;durP2;ratioP2;P2;SDS_P1;SDS_P2;PMS_P1;PMS_P2;Temp;Humidity;BMP_temperature;BMP_pressure;BME280_temperature;BME280_humidity;BME280_pressure;Samples;Min_cycle;Max_cycle;Signal;HPM_P1;HPM_P2
2023/07/17 00:01:02;;;;;;;10.30;9.20;;;;;;;23.52;62.13;100638.66;105720;1260;60482;-56
2023/07/17 00:03:29;;;;;;;11.10;10.00;;;;;;;23.49;62.18;100642.84;105417;1255;64944;-58
2023/07/17 00:05:57;;;;;;;12.30;8.90;;;;;;;23.49;62.19;100641.39;105476;1254;61350;-57
2023/07/17 00:08:25;;;;;;;10.30;9.20;;;;;;;23.43;62.29;100638.80;105467;1257;63846;-57
2023/07/17 00:10:53;;;;;;;11.00;9.00;;;;;;;23.40;62.34;100636.52;105387;1259;60331;-57
2023/07/17 00:13:20;;;;;;;11.90;8.80;;;;;;;23.40;62.31;100635.60;105359;1260;60555;-55
2023/07/17 00:15:48;;;;;;;11.40;9.30;;;;;;;23.40;62.20;100637.25;105300;1259;64942;-58
2023/07/17 00:18:15;;;;;;;10.70;9.10;;;;;;;23.39;62.17;100635.11;105462;1258;61777;-57
2023/07/17 00:20:43;;;;;;;11.50;9.40;;;;;;;23.35;62.12;100630.55;105452;1254;63879;-57
2023/07/17 00:23:10;;;;;;;13.00;9.70;;;;;;;23.29;62.25;100634.70;105346;1254;60509;-58
2023/07/17 00:25:38;;;;;;;10.40;9.20;;;;;;;23.24;62.28;100635.02;105389;1260;60377;-57
2023/07/17 00:28:05;;;;;;;10.90;9.40;;;;;;;23.19;62.42;100631.41;105380;1260;65379;-58
2023/07/17 00:30:33;;;;;;;11.20;9.10;;;;;;;23.16;62.28;100632.17;105410;1260;61315;-58
2023/07/17 00:33:01;;;;;;;10.20;9.00;;;;;;;23.15;62.16;100630.67;105404;1254;62665;-57
2023/07/17 00:35:28;;;;;;;11.90;9.20;;;;;;;23.11;62.17;100627.58;105418;1259;60520;-57
2023/07/17 00:37:56;;;;;;;14.10;10.00;;;;;;;23.09;62.17;100625.74;105296;1260;60479;-57
2023/07/17 00:40:23;;;;;;;11.90;9.80;;;;;;;23.06;62.00;100626.61;105293;1260;65126;-57
2023/07/17 00:42:58;;;;;;;11.60;10.00;;;;;;;23.03;62.08;100623.11;105343;1261;61296;-57
2023/07/17 00:45:32;;;;;;;12.10;10.80;;;;;;;22.99;62.08;100621.16;105349;1257;63750;-58
2023/07/17 00:48:02;;;;;;;13.30;10.40;;;;;;;22.96;62.06;100618.77;105413;1260;60554;-58
2023/07/17 00:50:30;;;;;;;11.60;10.40;;;;;;;22.94;62.07;100614.16;105397;1254;60521;-57
2023/07/17 00:52:57;;;;;;;11.10;10.00;;;;;;;22.93;62.24;100615.35;105447;1254;64921;-57
2023/07/17 00:55:25;;;;;;;9.90;8.80;;;;;;;22.93;62.43;100617.34;105349;1254;61364;-57
2023/07/17 00:57:52;;;;;;;12.40;10.80;;;;;;;22.93;62.52;100617.70;105437;1258;62427;-57
2023/07/17 01:00:22;;;;;;;12.30;10.60;;;;;;;22.90;62.49;100615.77;105325;1261;60325;-53
2023/07/17 01:02:50;;;;;;;10.90;9.80;;;;;;;22.87;62.45;100615.58;105603;1260;60392;-57
2023/07/17 01:05:18;;;;;;;11.20;10.10;;;;;;;22.85;62.59;100613.56;105727;1258;65052;-58
2023/07/17 01:07:46;;;;;;;11.30;10.20;;;;;;;22.84;62.54;100614.23;105526;1258;61313;-56
2023/07/17 01:10:13;;;;;;;11.70;10.30;;;;;;;22.85;62.52;100611.59;105610;1258;63800;-57
2023/07/17 01:12:43;;;;;;;12.50;10.40;;;;;;;22.86;62.66;100614.94;105561;1258;60597;-56
2023/07/17 01:15:10;;;;;;;11.70;10.20;;;;;;;22.84;62.76;100614.48;105553;1260;60449;-54
2023/07/17 01:17:38;;;;;;;13.50;10.80;;;;;;;22.81;63.00;100615.37;105430;1254;63721;-54
2023/07/17 01:20:09;;;;;;;12.00;10.50;;;;;;;22.78;63.08;100617.13;105343;1259;69238;-54
2023/07/17 01:22:48;;;;;;;12.10;10.40;;;;;;;22.77;62.93;100614.81;105356;1260;63694;-56
2023/07/17 01:25:17;;;;;;;11.60;9.80;;;;;;;22.77;62.93;100612.46;105371;1254;60457;-56
2023/07/17 01:27:44;;;;;;;12.30;10.30;;;;;;;22.77;62.92;100614.44;105511;1258;60463;-58
2023/07/17 01:30:12;;;;;;;13.20;11.00;;;;;;;22.76;63.29;100615.89;105312;1259;64947;-56
2023/07/17 01:32:40;;;;;;;12.40;10.00;;;;;;;22.77;63.58;100617.28;105555;1254;61849;-57
2023/07/17 01:35:08;;;;;;;15.40;10.40;;;;;;;22.73;63.93;100616.32;105392;1254;63864;-56
2023/07/17 01:37:35;;;;;;;11.10;9.90;;;;;;;22.71;64.20;100615.07;105340;1261;60590;-56
2023/07/17 01:40:04;;;;;;;12.10;10.00;;;;;;;22.71;64.27;100615.03;105554;1260;60616;-57
2023/07/17 01:42:32;;;;;;;11.20;9.70;;;;;;;22.72;64.33;100617.09;105589;1258;65033;-57
2023/07/17 01:44:59;;;;;;;10.40;9.30;;;;;;;22.71;64.36;100615.40;105293;1254;62092;-56
2023/07/17 01:47:28;;;;;;;11.60;10.40;;;;;;;22.68;64.36;100615.95;105682;1254;63669;-56
2023/07/17 01:49:55;;;;;;;13.60;11.80;;;;;;;22.61;64.41;100614.80;105266;1259;60449;-56
2023/07/17 01:52:23;;;;;;;12.30;11.10;;;;;;;22.57;64.49;100610.23;105649;1254;60559;-56
2023/07/17 01:54:50;;;;;;;13.60;10.50;;;;;;;22.52;64.44;100612.64;105436;1260;63617;-57
2023/07/17 01:57:18;;;;;;;16.40;11.20;;;;;;;22.49;64.47;100618.05;105422;1259;61765;-56
2023/07/17 01:59:46;;;;;;;12.10;10.80;;;;;;;22.47;64.38;100618.63;105355;1260;63949;-57
2023/07/17 02:02:14;;;;;;;14.80;11.20;;;;;;;22.46;64.35;100619.44;105365;1257;60530;-56
2023/07/17 02:04:42;;;;;;;13.30;11.80;;;;;;;22.44;64.37;100619.54;105411;1260;60584;-57
2023/07/17 02:07:09;;;;;;;13.60;11.10;;;;;;;22.38;64.46;100623.30;105406;1254;63633;-57
2023/07/17 02:09:37;;;;;;;12.50;11.20;;;;;;;22.32;64.65;100621.32;105374;1254;61765;-57
2023/07/17 02:12:05;;;;;;;11.70;10.50;;;;;;;22.30;64.51;100618.27;105384;1260;63705;-55
2023/07/17 02:14:32;;;;;;;11.00;9.90;;;;;;;22.30;64.52;100620.19;105482;1254;60383;-59
2023/07/17 02:17:00;;;;;;;12.00;10.50;;;;;;;22.33;64.43;100620.05;105449;1257;60414;-56
2023/07/17 02:19:28;;;;;;;12.80;11.40;;;;;;;22.34;64.35;100625.19;105465;1254;65062;-55
2023/07/17 02:21:56;;;;;;;12.40;10.30;;;;;;;22.32;64.42;100623.91;105265;1254;61348;-53
2023/07/17 02:24:23;;;;;;;15.40;11.30;;;;;;;22.32;64.53;100624.54;105426;1259;62475;-55
2023/07/17 02:26:51;;;;;;;12.60;11.30;;;;;;;22.31;64.46;100619.70;105317;1254;60587;-53
2023/07/17 02:29:18;;;;;;;10.90;9.80;;;;;;;22.30;64.51;100620.05;105428;1259;60454;-54
2023/07/17 02:31:47;;;;;;;11.80;10.20;;;;;;;22.32;64.16;100619.80;105274;1261;63706;-54
2023/07/17 02:34:15;;;;;;;11.90;10.20;;;;;;;22.33;63.83;100624.30;105978;1260;61419;-54
2023/07/17 02:36:42;;;;;;;12.50;10.40;;;;;;;22.35;63.53;100623.69;105411;1254;63755;-55
2023/07/17 02:39:11;;;;;;;12.30;11.00;;;;;;;22.35;63.35;100624.60;105462;1254;60535;-53
2023/07/17 02:41:39;;;;;;;16.10;11.40;;;;;;;22.32;63.40;100626.88;105486;1258;60527;-59
2023/07/17 02:44:07;;;;;;;12.70;11.00;;;;;;;22.27;63.49;100627.69;105440;1254;64835;-55
2023/07/17 02:46:35;;;;;;;12.70;9.50;;;;;;;22.20;63.45;100629.03;105493;1260;60608;-54
2023/07/17 02:49:06;;;;;;;11.80;9.80;;;;;;;22.19;63.65;100633.64;105339;1255;63684;-56
2023/07/17 02:51:34;;;;;;;13.90;9.50;;;;;;;22.21;63.52;100638.02;105504;1254;60594;-55
2023/07/17 02:54:02;;;;;;;12.70;10.20;;;;;;;22.24;63.58;100641.22;105353;1260;60901;-53
2023/07/17 02:56:31;;;;;;;10.90;9.60;;;;;;;22.24;63.70;100645.55;105508;1256;63696;-54
2023/07/17 02:58:59;;;;;;;12.00;10.70;;;;;;;22.23;63.77;100647.48;105355;1255;61337;-53
2023/07/17 03:01:27;;;;;;;11.90;10.60;;;;;;;22.24;63.70;100646.62;105454;1261;62508;-54
2023/07/17 03:03:55;;;;;;;13.30;11.00;;;;;;;22.26;63.75;100648.50;105420;1260;60440;-55
2023/07/17 03:06:23;;;;;;;10.90;9.80;;;;;;;22.31;63.82;100649.92;105295;1260;60580;-56
2023/07/17 03:08:50;;;;;;;11.80;10.10;;;;;;;22.36;63.76;100656.04;105404;1254;64960;-56
2023/07/17 03:11:18;;;;;;;14.40;10.70;;;;;;;22.40;63.78;100656.27;105555;1254;61386;-55
2023/07/17 03:13:46;;;;;;;11.50;10.30;;;;;;;22.44;63.95;100657.04;105426;1260;62537;-52
2023/07/17 03:16:13;;;;;;;10.20;9.10;;;;;;;22.48;64.13;100654.92;105408;1254;60597;-57
2023/07/17 03:18:41;;;;;;;13.40;10.70;;;;;;;22.52;64.14;100654.21;105490;1253;60459;-57
2023/07/17 03:21:08;;;;;;;11.80;10.30;;;;;;;22.56;64.15;100654.33;105387;1254;64855;-59
2023/07/17 03:23:36;;;;;;;11.30;10.00;;;;;;;22.60;64.08;100656.26;105506;1260;60472;-59
2023/07/17 03:26:04;;;;;;;11.40;10.20;;;;;;;22.67;64.01;100658.48;105425;1254;63772;-58
2023/07/17 03:28:31;;;;;;;11.80;9.80;;;;;;;22.73;64.08;100659.44;105310;1257;60625;-57
2023/07/17 03:30:59;;;;;;;11.80;10.00;;;;;;;22.81;63.93;100660.77;105400;1259;60450;-57
2023/07/17 03:33:27;;;;;;;11.60;10.30;;;;;;;22.83;63.76;100664.79;105738;1254;64956;-58
2023/07/17 03:35:54;;;;;;;14.00;11.30;;;;;;;22.84;63.40;100663.09;105467;1260;60662;-58
2023/07/17 03:38:22;;;;;;;12.20;11.00;;;;;;;22.86;63.12;100664.55;105513;1254;63751;-57
2023/07/17 03:40:49;;;;;;;12.90;10.50;;;;;;;22.88;62.97;100667.16;105411;1257;60613;-57
2023/07/17 03:43:17;;;;;;;12.00;10.60;;;;;;;22.91;62.99;100663.67;105388;1254;60648;-58
2023/07/17 03:45:45;;;;;;;11.60;10.40;;;;;;;22.92;62.83;100668.42;105836;1258;64936;-56
2023/07/17 03:48:13;;;;;;;12.70;10.90;;;;;;;22.95;62.67;100670.97;105343;1260;61350;-59
2023/07/17 03:50:40;;;;;;;14.60;11.50;;;;;;;22.96;62.34;100670.48;105755;1254;63677;-59
2023/07/17 03:53:08;;;;;;;13.40;11.10;;;;;;;22.94;62.20;100675.55;105305;1254;60639;-56
2023/07/17 03:55:36;;;;;;;14.00;11.90;;;;;;;22.93;62.24;100676.93;105568;1260;60494;-58
2023/07/17 03:58:06;;;;;;;13.00;11.50;;;;;;;22.92;62.23;100677.55;105365;1255;64912;-58
2023/07/17 04:00:33;;;;;;;11.70;10.50;;;;;;;22.97;62.32;100680.23;105449;1260;61364;-58
2023/07/17 04:03:01;;;;;;;12.80;11.60;;;;;;;23.03;62.35;100680.44;105458;1254;62447;-58
2023/07/17 04:05:39;;;;;;;15.80;11.30;;;;;;;23.12;62.34;100677.98;105412;1254;60536;-57
2023/07/17 04:08:09;;;;;;;13.90;10.90;;;;;;;23.17;62.25;100674.52;105379;1254;60555;-54
2023/07/17 04:10:37;;;;;;;12.60;11.30;;;;;;;23.20;61.99;100671.84;105535;1254;64917;-57
2023/07/17 04:13:04;;;;;;;13.30;11.80;;;;;;;23.24;62.05;100670.02;105365;1254;61473;-56
2023/07/17 04:15:34;;;;;;;12.90;11.20;;;;;;;23.26;62.29;100670.96;105508;1255;63681;-56
2023/07/17 04:18:02;;;;;;;11.70;10.50;;;;;;;23.32;62.15;100673.42;105801;1255;60815;-56
2023/07/17 04:20:30;;;;;;;11.60;10.50;;;;;;;23.38;62.16;100675.64;105385;1260;60707;-56
2023/07/17 04:22:58;;;;;;;12.30;10.80;;;;;;;23.44;62.18;100674.38;105135;1254;64942;-56
2023/07/17 04:25:26;;;;;;;12.50;11.10;;;;;;;23.49;62.16;100676.02;109104;1254;61868;-56
2023/07/17 04:27:53;;;;;;;15.20;11.50;;;;;;;23.53;62.28;100675.95;107736;1254;63925;-57
2023/07/17 04:30:22;;;;;;;15.10;11.50;;;;;;;23.58;62.17;100673.16;105470;1254;60558;-56
2023/07/17 04:32:53;;;;;;;12.00;10.80;;;;;;;23.63;61.33;100673.55;109318;1253;58572;-58
2023/07/17 04:35:20;;;;;;;12.00;10.70;;;;;;;23.64;61.03;100675.56;109324;1254;64870;-57
2023/07/17 04:37:49;;;;;;;11.70;9.90;;;;;;;23.67;60.52;100677.23;106598;1254;61929;-57
2023/07/17 04:40:17;;;;;;;10.30;9.30;;;;;;;23.72;60.17;100680.55;105459;1254;62444;-57
2023/07/17 04:42:46;;;;;;;12.50;11.20;;;;;;;23.74;59.77;100682.25;105335;1254;60843;-60
2023/07/17 04:45:16;;;;;;;12.40;11.10;;;;;;;23.76;59.52;100681.65;105468;1260;60453;-60
2023/07/17 04:47:44;;;;;;;11.70;10.10;;;;;;;23.78;59.21;100679.80;105547;1253;64858;-60
2023/07/17 04:50:12;;;;;;;12.90;9.80;;;;;;;23.80;58.94;100679.96;105443;1254;61362;-60
2023/07/17 04:52:39;;;;;;;12.10;9.60;;;;;;;23.83;58.97;100679.95;105419;1254;63843;-58
2023/07/17 04:55:07;;;;;;;11.60;10.00;;;;;;;23.88;59.08;100680.16;105410;1254;60498;-58
2023/07/17 04:57:35;;;;;;;12.30;10.10;;;;;;;23.99;58.61;100684.58;105368;1254;61391;-55
2023/07/17 05:00:05;;;;;;;11.20;9.20;;;;;;;24.07;58.16;100678.54;105419;1254;63638;-55
2023/07/17 05:02:33;;;;;;;11.60;9.50;;;;;;;24.14;58.24;100675.83;105450;1259;60432;-55
2023/07/17 05:05:01;;;;;;;11.00;9.40;;;;;;;24.21;58.31;100674.25;105384;1254;64129;-55
2023/07/17 05:07:29;;;;;;;12.40;8.50;;;;;;;24.27;57.78;100671.52;105616;1254;60459;-56
2023/07/17 05:09:57;;;;;;;10.70;9.60;;;;;;;24.35;57.28;100673.27;105310;1254;60348;-56
2023/07/17 05:12:24;;;;;;;11.00;8.80;;;;;;;24.42;57.19;100673.73;105365;1261;64019;-55
2023/07/17 05:14:52;;;;;;;10.40;9.30;;;;;;;24.49;56.82;100671.79;105392;1254;61299;-53
2023/07/17 05:17:20;;;;;;;10.10;9.00;;;;;;;24.53;55.98;100669.92;105429;1254;63714;-58
2023/07/17 05:19:48;;;;;;;9.60;8.60;;;;;;;24.56;55.29;100667.41;107276;1254;60510;-55
2023/07/17 05:22:16;;;;;;;15.10;8.90;;;;;;;24.60;55.10;100668.11;105421;1259;60382;-54
2023/07/17 05:24:44;;;;;;;11.30;8.00;;;;;;;24.64;54.96;100665.26;105244;1254;295185;-54
2023/07/17 05:28:07;;;;;;;9.60;8.00;;;;;;;24.52;55.29;100667.41;102533;1291;600225;-55
2023/07/17 05:30:35;;;;;;;12.10;8.20;;;;;;;24.82;54.37;100663.48;104489;1267;59379;-55
2023/07/17 05:33:03;;;;;;;9.90;8.50;;;;;;;24.97;54.18;100662.42;104532;1267;59267;-55
2023/07/17 05:35:30;;;;;;;11.20;8.60;;;;;;;25.09;54.45;100661.10;104211;1273;63354;-56
2023/07/17 05:37:58;;;;;;;10.40;9.10;;;;;;;25.20;54.53;100662.23;108449;1266;61333;-58
2023/07/17 05:40:26;;;;;;;10.50;9.40;;;;;;;25.31;54.49;100660.39;104748;1271;202076;-59
2023/07/17 05:42:57;;;;;;;11.20;8.40;;;;;;;25.42;54.13;100660.19;104959;1270;59275;-59
2023/07/17 05:45:25;;;;;;;11.60;8.70;;;;;;;25.50;54.11;100660.80;105015;1269;59486;-57
2023/07/17 05:47:53;;;;;;;10.90;9.50;;;;;;;25.57;54.01;100658.77;104818;1268;63719;-57
2023/07/17 05:50:20;;;;;;;10.20;8.80;;;;;;;25.66;53.99;100656.11;104653;1267;60099;-58
2023/07/17 05:52:48;;;;;;;10.60;9.10;;;;;;;25.77;53.40;100660.28;104659;1270;71194;-56
2023/07/17 05:55:15;;;;;;;10.70;8.80;;;;;;;25.88;52.97;100660.59;104576;1268;59666;-56
2023/07/17 05:57:43;;;;;;;10.80;9.70;;;;;;;25.97;52.33;100658.89;104508;1270;59843;-60
2023/07/17 06:00:14;;;;;;;12.30;9.50;;;;;;;26.05;52.25;100654.66;105870;1267;64160;-57
2023/07/17 06:02:44;;;;;;;12.90;9.50;;;;;;;26.12;52.44;100656.27;104684;1269;61353;-58
2023/07/17 06:05:12;;;;;;;12.80;9.60;;;;;;;26.21;52.81;100656.27;105291;1268;63773;-60
2023/07/17 06:07:39;;;;;;;11.00;9.80;;;;;;;26.31;53.14;100658.94;104555;1267;59739;-60
2023/07/17 06:10:07;;;;;;;11.70;9.90;;;;;;;26.37;53.40;100657.73;104459;1270;59565;-59
2023/07/17 06:12:35;;;;;;;10.30;9.20;;;;;;;26.40;53.87;100659.05;108576;1264;64607;-64
2023/07/17 06:15:03;;;;;;;11.80;9.40;;;;;;;26.49;53.98;100658.04;105242;1269;60131;-66
2023/07/17 06:17:31;;;;;;;11.00;8.70;;;;;;;26.59;53.77;100660.36;104661;1264;62431;-60
2023/07/17 06:19:58;;;;;;;11.00;9.90;;;;;;;26.66;53.43;100659.70;104515;1267;59755;-59
2023/07/17 06:22:26;;;;;;;11.20;9.90;;;;;;;26.71;53.25;100659.94;104777;1264;59673;-65
2023/07/17 06:24:54;;;;;;;12.80;9.80;;;;;;;26.75;52.94;100662.59;104692;1269;64084;-62
2023/07/17 06:27:21;;;;;;;10.50;9.40;;;;;;;26.79;52.99;100661.27;104850;1264;62127;-62
2023/07/17 06:29:49;;;;;;;13.50;10.00;;;;;;;26.84;53.10;100663.73;104631;1267;63743;-65
2023/07/17 06:32:16;;;;;;;13.40;10.40;;;;;;;26.95;53.13;100665.66;104618;1267;59717;-66
2023/07/17 06:34:44;;;;;;;11.80;10.10;;;;;;;27.03;53.17;100665.05;104527;1269;60445;-63
2023/07/17 06:37:12;;;;;;;10.70;9.70;;;;;;;27.12;52.76;100662.12;104809;1270;64144;-60
2023/07/17 06:39:39;;;;;;;10.60;9.50;;;;;;;27.19;52.19;100661.15;104586;1264;61418;-63
2023/07/17 06:42:08;;;;;;;10.90;9.10;;;;;;;27.28;51.81;100660.48;104558;1267;63669;-60
2023/07/17 06:44:36;;;;;;;11.80;9.80;;;;;;;27.33;50.99;100656.11;104795;1264;59751;-61
2023/07/17 06:47:04;;;;;;;9.90;8.90;;;;;;;27.40;50.72;100659.55;104597;1273;59586;-66
2023/07/17 06:49:41;;;;;;;12.10;9.70;;;;;;;27.46;50.93;100657.31;104596;1263;64184;-63
2023/07/17 06:52:08;;;;;;;12.20;9.30;;;;;;;27.50;51.24;100659.88;104719;1269;61926;-67
2023/07/17 06:54:36;;;;;;;10.20;9.10;;;;;;;27.51;51.08;100662.55;104742;1268;63704;-61
2023/07/17 06:57:23;;;;;;;16.10;10.20;;;;;;;27.52;51.01;100663.09;104669;1267;59721;-63
2023/07/17 06:59:51;;;;;;;10.10;9.10;;;;;;;27.50;50.90;100665.27;104622;1272;59676;-61
2023/07/17 07:02:18;;;;;;;10.80;9.20;;;;;;;27.48;50.88;100664.19;104658;1264;64148;-63
2023/07/17 07:04:46;;;;;;;10.70;9.50;;;;;;;27.50;51.11;100666.77;104854;1264;61511;-63
2023/07/17 07:07:13;;;;;;;11.20;10.10;;;;;;;27.54;51.28;100667.60;104536;1270;63762;-63
2023/07/17 07:09:45;;;;;;;10.60;9.40;;;;;;;27.58;51.28;100669.08;104675;1267;60067;-61
2023/07/17 07:12:13;;;;;;;10.40;9.30;;;;;;;27.64;51.00;100668.89;104609;1265;59758;-61
2023/07/17 07:14:41;;;;;;;12.80;9.00;;;;;;;27.69;50.69;100667.14;104893;1263;64067;-62
2023/07/17 07:17:08;;;;;;;9.50;8.40;;;;;;;27.74;50.27;100665.91;104850;1273;61364;-59
2023/07/17 07:19:36;;;;;;;11.70;9.10;;;;;;;27.78;50.25;100661.60;104610;1270;63772;-62
2023/07/17 07:22:04;;;;;;;10.60;8.40;;;;;;;27.85;50.38;100664.21;105063;1264;59268;-59
2023/07/17 07:24:32;;;;;;;9.70;8.60;;;;;;;27.92;50.46;100663.05;104901;1263;59768;-60
2023/07/17 07:26:59;;;;;;;10.60;9.00;;;;;;;28.00;50.54;100664.23;104660;1270;64168;-60
2023/07/17 07:29:27;;;;;;;10.90;8.00;;;;;;;28.08;51.02;100664.11;104859;1266;61295;-62
2023/07/17 07:31:54;;;;;;;10.30;8.50;;;;;;;28.16;50.59;100667.89;104630;1269;63800;-60
2023/07/17 07:34:22;;;;;;;9.30;7.60;;;;;;;28.24;50.31;100668.34;104746;1271;59631;-62
2023/07/17 07:36:50;;;;;;;9.20;8.20;;;;;;;28.31;50.05;100665.07;104671;1264;59724;-59
2023/07/17 07:39:18;;;;;;;7.90;7.10;;;;;;;28.37;49.86;100662.55;104464;1267;67460;-61
2023/07/17 07:41:45;;;;;;;9.60;8.60;;;;;;;28.44;49.72;100658.77;104725;1270;60291;-56
2023/07/17 07:44:13;;;;;;;9.60;8.00;;;;;;;28.48;48.84;100655.40;104627;1271;63922;-58
2023/07/17 07:46:41;;;;;;;9.40;7.60;;;;;;;28.50;47.76;100656.20;104807;1268;59999;-59
2023/07/17 07:49:08;;;;;;;12.10;7.70;;;;;;;28.52;48.43;100653.42;104753;1269;59574;-58
2023/07/17 07:51:36;;;;;;;8.40;7.50;;;;;;;28.56;47.71;100653.85;104618;1269;62857;-58
2023/07/17 07:54:04;;;;;;;11.10;7.40;;;;;;;28.59;46.24;100653.17;104536;1267;61329;-60
2023/07/17 07:56:31;;;;;;;9.10;7.70;;;;;;;28.62;46.49;100654.02;104928;1264;63692;-59
2023/07/17 07:58:59;;;;;;;8.40;7.40;;;;;;;28.68;46.29;100657.54;104873;1268;59775;-60
2023/07/17 08:01:26;;;;;;;11.80;7.90;;;;;;;28.73;46.12;100654.73;104819;1264;59333;-59
2023/07/17 08:03:54;;;;;;;10.40;6.90;;;;;;;28.78;46.60;100652.20;104735;1267;63044;-61
2023/07/17 08:06:23;;;;;;;9.20;7.30;;;;;;;28.78;46.99;100654.45;104640;1264;61331;-59
2023/07/17 08:08:50;;;;;;;9.00;7.30;;;;;;;28.78;46.88;100650.29;104676;1267;62531;-61
2023/07/17 08:11:21;;;;;;;9.10;7.20;;;;;;;28.82;46.60;100646.42;104666;1268;59733;-59
2023/07/17 08:13:48;;;;;;;9.00;7.80;;;;;;;28.86;46.01;100642.11;104853;1267;61849;-60
2023/07/17 08:16:19;;;;;;;11.40;7.30;;;;;;;28.91;46.27;100640.98;104569;1270;62913;-59
2023/07/17 08:18:48;;;;;;;7.90;6.70;;;;;;;28.97;46.41;100641.28;104629;1269;61433;-60
2023/07/17 08:21:16;;;;;;;9.00;7.20;;;;;;;29.04;46.44;100642.51;104646;1267;63821;-60
2023/07/17 08:23:43;;;;;;;10.20;7.60;;;;;;;29.11;46.38;100641.83;104696;1265;59809;-60
2023/07/17 08:26:11;;;;;;;8.70;6.60;;;;;;;29.18;45.33;100644.05;104748;1269;59777;-62
2023/07/17 08:28:39;;;;;;;10.30;6.40;;;;;;;29.23;44.53;100641.08;104737;1264;64203;-59
2023/07/17 08:31:07;;;;;;;7.70;6.60;;;;;;;29.29;44.97;100640.77;104620;1269;61369;-59
2023/07/17 08:33:35;;;;;;;8.40;6.00;;;;;;;29.38;44.81;100641.30;104899;1265;63742;-60
2023/07/17 08:36:03;;;;;;;9.80;6.30;;;;;;;29.46;44.33;100645.86;105101;1260;59740;-60
2023/07/17 08:38:30;;;;;;;11.80;6.40;;;;;;;29.51;43.92;100646.38;104921;1261;60563;-61
2023/07/17 08:40:58;;;;;;;9.90;6.90;;;;;;;29.55;43.21;100644.89;104931;1261;64124;-60
2023/07/17 08:43:27;;;;;;;8.60;7.20;;;;;;;29.61;43.60;100649.17;105176;1261;61837;-63
2023/07/17 08:45:54;;;;;;;8.60;6.80;;;;;;;29.67;43.67;100649.17;104856;1263;63763;-59
2023/07/17 08:48:26;;;;;;;9.70;7.10;;;;;;;29.74;43.13;100650.39;104957;1260;59669;-61
2023/07/17 08:50:53;;;;;;;8.20;7.10;;;;;;;29.82;42.91;100646.80;105503;1257;59623;-63
2023/07/17 08:53:22;;;;;;;8.90;6.70;;;;;;;29.91;43.23;100643.65;105380;1254;64048;-63
2023/07/17 08:55:54;;;;;;;8.60;5.90;;;;;;;29.99;43.45;100644.86;105686;1251;61421;-65
2023/07/17 08:58:22;;;;;;;8.50;6.30;;;;;;;30.06;43.31;100649.42;105438;1254;63906;-63
2023/07/17 09:00:52;;;;;;;7.20;5.70;;;;;;;30.10;43.01;100649.98;105435;1254;59785;-64
2023/07/17 09:03:20;;;;;;;9.60;6.60;;;;;;;30.17;43.16;100650.31;105319;1259;59775;-62
2023/07/17 09:05:49;;;;;;;8.10;7.30;;;;;;;30.27;42.68;100646.52;105554;1254;64108;-60
2023/07/17 09:08:16;;;;;;;11.60;6.90;;;;;;;30.36;42.68;100641.13;105686;1254;61354;-62
2023/07/17 09:10:44;;;;;;;8.70;6.90;;;;;;;30.44;42.84;100641.90;105416;1260;63746;-62
2023/07/17 09:13:12;;;;;;;7.70;5.70;;;;;;;30.49;42.82;100642.00;105436;1253;59742;-61
2023/07/17 09:15:39;;;;;;;11.20;6.90;;;;;;;30.57;43.04;100638.84;105512;1253;59678;-62
2023/07/17 09:18:07;;;;;;;8.10;7.00;;;;;;;30.62;42.83;100642.81;105403;1258;64057;-61
2023/07/17 09:20:35;;;;;;;8.50;7.30;;;;;;;30.66;43.10;100642.56;105362;1255;61531;-63
2023/07/17 09:23:03;;;;;;;9.20;6.50;;;;;;;30.71;42.72;100642.68;105386;1254;63681;-61
2023/07/17 09:25:31;;;;;;;9.40;6.60;;;;;;;30.76;42.10;100637.38;104665;1268;59664;-62
2023/07/17 09:27:59;;;;;;;9.10;6.70;;;;;;;30.81;42.09;100636.67;105406;1255;59842;-61
2023/07/17 09:30:27;;;;;;;10.20;7.00;;;;;;;30.83;42.26;100635.33;105603;1258;64220;-62
2023/07/17 09:33:04;;;;;;;8.80;7.30;;;;;;;30.82;42.42;100628.26;105444;1254;61424;-59
2023/07/17 09:35:32;;;;;;;10.00;6.90;;;;;;;30.79;42.54;100625.38;105463;1255;62442;-62
2023/07/17 09:38:02;;;;;;;8.20;6.10;;;;;;;30.77;42.72;100629.82;105266;1262;60553;-62
2023/07/17 09:40:29;;;;;;;8.30;6.70;;;;;;;30.75;42.31;100628.45;105408;1254;60589;-60
2023/07/17 09:42:57;;;;;;;9.50;6.40;;;;;;;30.77;42.12;100626.84;105536;1260;64939;-63
2023/07/17 09:45:25;;;;;;;8.30;5.70;;;;;;;30.84;42.07;100623.29;105276;1254;61329;-62
2023/07/17 09:47:52;;;;;;;8.50;5.70;;;;;;;30.93;42.43;100624.09;105551;1259;62495;-61
2023/07/17 09:50:22;;;;;;;9.30;6.50;;;;;;;31.03;42.64;100622.45;105332;1254;60619;-62
2023/07/17 09:52:50;;;;;;;7.90;6.10;;;;;;;31.14;42.27;100622.70;105357;1257;60397;-61
2023/07/17 09:55:25;;;;;;;7.80;6.30;;;;;;;31.24;41.94;100623.13;105522;1257;64914;-61
2023/07/17 09:57:52;;;;;;;8.90;6.30;;;;;;;31.32;41.29;100624.52;105665;1257;60531;-63
2023/07/17 10:00:21;;;;;;;8.20;6.40;;;;;;;31.39;41.52;100621.19;105337;1254;63697;-61
2023/07/17 10:03:13;;;;;;;8.70;6.50;;;;;;;31.47;41.14;100619.80;105793;1258;60552;-63
2023/07/17 10:05:41;;;;;;;7.90;6.90;;;;;;;31.51;40.57;100618.84;105372;1254;60421;-63
2023/07/17 10:08:10;;;;;;;8.20;7.20;;;;;;;31.52;40.19;100623.30;105442;1255;64948;-61
2023/07/17 10:10:38;;;;;;;7.50;6.50;;;;;;;31.49;39.60;100622.70;105369;1254;60423;-61
2023/07/17 10:13:06;;;;;;;9.00;6.90;;;;;;;31.46;39.87;100618.42;105550;1254;62647;-61
2023/07/17 10:15:35;;;;;;;8.50;5.60;;;;;;;31.47;40.14;100614.30;105374;1260;60512;-62
2023/07/17 10:18:04;;;;;;;7.60;5.80;;;;;;;31.51;40.80;100609.31;105369;1253;60451;-62
2023/07/17 10:20:31;;;;;;;8.90;6.80;;;;;;;31.56;41.89;100606.48;105354;1254;63840;-65
2023/07/17 10:22:59;;;;;;;7.60;5.50;;;;;;;31.62;41.97;100608.71;105404;1254;61498;-63
2023/07/17 10:25:27;;;;;;;10.30;5.80;;;;;;;31.70;41.82;100604.48;105518;1254;63814;-64
2023/07/17 10:28:02;;;;;;;8.00;7.10;;;;;;;31.81;41.13;100600.55;105419;1254;60625;-62
2023/07/17 10:30:31;;;;;;;11.10;7.00;;;;;;;31.92;40.95;100599.67;105407;1254;60504;-61
2023/07/17 10:33:04;;;;;;;7.80;6.80;;;;;;;32.03;40.94;100598.77;105398;1259;64938;-62
2023/07/17 10:35:44;;;;;;;8.30;7.00;;;;;;;32.12;40.73;100599.30;105367;1254;61298;-63
2023/07/17 10:38:13;;;;;;;8.60;7.00;;;;;;;32.19;40.66;100602.89;105480;1259;63727;-62
2023/07/17 10:40:41;;;;;;;8.50;6.40;;;;;;;32.23;40.16;100596.33;105402;1255;60563;-62
2023/07/17 10:43:13;;;;;;;8.10;6.60;;;;;;;32.24;39.91;100592.52;105620;1254;60531;-64
2023/07/17 10:45:41;;;;;;;7.80;6.00;;;;;;;32.26;39.79;100592.04;105446;1254;63686;-64
2023/07/17 10:48:08;;;;;;;7.30;6.30;;;;;;;32.32;39.87;100593.23;105470;1257;60444;-63
2023/07/17 10:50:37;;;;;;;9.20;6.20;;;;;;;32.39;38.72;100587.71;105293;1260;62465;-62
2023/07/17 10:53:05;;;;;;;8.50;6.40;;;;;;;32.46;38.24;100585.94;105663;1254;61705;-63
2023/07/17 10:55:33;;;;;;;8.30;7.20;;;;;;;32.50;38.10;100583.73;105344;1259;60556;-62
2023/07/17 10:58:01;;;;;;;13.30;6.80;;;;;;;32.54;38.26;100584.63;105599;1254;64973;-64
2023/07/17 11:00:28;;;;;;;9.30;6.50;;;;;;;32.58;39.27;100584.44;105456;1257;61344;-65
2023/07/17 11:02:56;;;;;;;8.20;6.70;;;;;;;32.65;39.96;100584.59;105389;1254;64240;-62
2023/07/17 11:05:24;;;;;;;8.50;6.80;;;;;;;32.74;40.43;100581.75;105395;1254;60977;-62
2023/07/17 11:07:55;;;;;;;7.40;5.50;;;;;;;32.85;40.49;100582.23;105425;1255;60418;-61
2023/07/17 11:10:22;;;;;;;9.80;6.10;;;;;;;32.98;40.09;100580.69;105499;1260;64962;-61
2023/07/17 11:12:50;;;;;;;7.30;6.40;;;;;;;33.11;39.45;100582.60;105502;1254;61292;-61
2023/07/17 11:15:18;;;;;;;6.50;4.70;;;;;;;33.22;38.45;100583.23;105401;1259;63735;-63